Date,TemperatureHighF,TemperatureAvgF,TemperatureLowF,DewpointHighF,DewpointAvgF,DewpointLowF,HumidityHigh,HumidityAvg,HumidityLow,PressureMaxIn,PressureMinIn,WindSpeedMaxMPH,WindSpeedAvgMPH,GustSpeedMaxMPH,PrecipitationSumIn
2013-1-1,50,47,43,50,43,33,98,80,48,29.66,29.49,2,0,4,0.22
2013-1-2,50,46,42,50,44,39,99,91,76,29.75,29.47,2,0,4,0.31
2013-1-3,47,41,31,39,37,28,90,82,65,29.82,29.70,2,0,2,0.01
2013-1-4,54,39,26,35,27,23,92,60,23,29.88,29.74,3,0,4,0.00
2013-1-5,53,34,26,34,18,-100,76,56,33,29.95,29.83,2,0,3,0.00
2013-1-6,53,43,36,42,37,-100,93,77,56,29.81,29.61,2,0,4,0.01
2013-1-7,58,41,29,40,33,27,92,71,36,29.99,29.73,2,0,4,0.01
2013-1-8,61,44,30,45,38,27,88,74,44,30.02,29.92,2,0,3,0.00
2013-1-9,69,51,36,54,45,34,96,77,48,30.01,29.53,2,0,3,0.00
2013-1-10,69,55,47,52,48,41,95,72,42,30.09,29.97,2,0,3,0.00
2013-1-11,51,48,42,49,44,37,99,86,51,29.99,29.67,1,0,2,0.24
2013-1-12,75,58,49,67,56,49,99,92,67,29.73,29.61,2,0,3,0.01
2013-1-13,78,64,54,66,59,53,99,82,52,29.70,29.55,6,0,9,0.01
2013-1-14,71,57,58,65,42,-100,91,74,74,29.71,29.59,2,0,4,0.00
2013-1-15,65,48,46,62,47,45,97,93,82,29.79,29.56,3,0,5,0.01
2013-1-16,50,47,44,50,46,44,99,98,97,29.64,29.49,2,0,4,0.18
2013-1-17,51,47,33,51,47,32,99,98,92,29.72,28.64,4,0,9,0.86
2013-1-18,52,37,29,40,31,26,99,75,32,30.09,29.09,2,0,4,0.44
2013-1-19,58,39,26,37,30,22,90,65,26,30.06,29.22,4,0,8,0.01
2013-1-20,69,48,35,43,36,31,84,60,22,29.71,29.52,3,0,6,0.00
2013-1-21,64,45,29,43,32,25,94,56,23,29.64,29.38,4,0,6,0.00
2013-1-22,43,35,27,26,13,4,52,28,18,29.84,29.47,3,0,7,0.00
2013-1-23,43,31,19,20,13,4,62,35,19,29.94,29.56,3,0,6,0.00
2013-1-24,41,33,25,26,16,3,73,41,18,30.07,29.48,4,0,9,0.00
2013-1-25,27,25,21,24,14,5,84,56,27,30.09,29.62,2,0,4,0.02
2013-1-26,44,32,27,38,28,24,93,84,61,29.96,29.62,1,0,2,0.01
2013-1-27,46,34,24,34,28,22,94,73,46,30.15,29.95,2,0,5,0.01
2013-1-28,52,43,33,47,37,28,86,74,62,30.07,29.63,4,0,6,0.01
2013-1-29,77,59,45,62,53,44,95,77,48,29.80,29.58,3,0,6,0.01
2013-1-30,73,68,60,66,63,57,91,82,69,29.63,28.92,11,3,21,0.24
2013-1-31,64,48,34,61,34,23,91,50,21,29.57,28.98,6,2,12,0.34